Pickle Lake, Ontario

Past 24 Hour Conditions

Date / Time
(EST)
Conditions Temp
(°F)
Humidity
(%)
Dew Point
(°F)
Wind
(mph)
Pressure
(inches)
Vis
(mi)
Wind Chill
28 November 2014
4:00 N/A -9 82 -13 W 10 30.2 N/A -27
3:00 N/A -10 82 -14 W 8 30.2 N/A -26
2:00 N/A -10 81 -14 W 7 30.2 N/A -25
1:00 N/A -10 80 -14 WSW 9 30.2 N/A -27
00:00 N/A -9 79 -14 WSW 9 30.3 N/A -26
27 November 2014
23:00 N/A -9 79 -14 WSW 8 30.3 N/A -25
22:00 N/A -9 80 -13 WSW 8 30.3 N/A -25
21:00 N/A -8 79 -13 WSW 9 30.3 N/A -25
20:00 N/A -7 80 -12 SW 8 30.3 N/A -23
19:00 N/A -8 81 -12 SW 6 30.3 N/A -22
18:00 N/A -7 81 -12 SW 8 30.4 N/A -23
17:00 N/A -5 80 -9 SW 8 30.4 N/A -20
16:00 N/A -2   74 -8 WSW 7 30.4 N/A -15
15:00 N/A -2   73 -9 WSW 7 30.4 N/A -16
14:00 N/A -3 74 -10 W 4 30.4 N/A -13
13:00 N/A -7 76 -12 W 5 30.4 N/A -18
12:00 N/A -11 78 -16 W 6 30.4 N/A -25
11:00 N/A -15 78 -20 W 4 30.5 N/A -27
10:00 N/A -18 78 -23 W 4 30.5 N/A -30
9:00 N/A -21   77 -26 W 6 30.5 N/A -36
8:00 N/A -20 76 -25 W 6 30.5 N/A -36
7:00 N/A -20 77 -25 W 6 30.5 N/A -36
6:00 N/A -20 77 -25 W 6 30.5 N/A -36
5:00 N/A -19 77 -24 W 8 30.5 N/A -38
4:00 N/A -18 78 -23 W 6 30.5 N/A -34
N/A Not available
↑ Highest temperature
↓ Lowest temperature
* Value not significant.

If you require additional historical weather information, please visit Climate Data Online.

Date modified: